Time;durP1;ratioP1;P1;durP2;ratioP2;P2;SDS_P1;SDS_P2;PMS_P1;PMS_P2;Temp;Humidity;BMP_temperature;BMP_pressure;BME280_temperature;BME280_humidity;BME280_pressure;Samples;Min_cycle;Max_cycle;Signal;HPM_P1;HPM_P2
2022/02/09 00:04:57;;;;;;;11.65;4.68;;;9.60;99.90;;;;;;4992053;28;20391;-48
2022/02/09 00:07:36;;;;;;;14.32;4.43;;;9.60;99.90;;;;;;4992138;28;20486;-52
2022/02/09 00:10:03;;;;;;;12.40;4.03;;;9.60;99.90;;;;;;5009376;28;20489;-49
2022/02/09 00:12:36;;;;;;;11.82;4.07;;;9.60;99.90;;;;;;5011911;28;20042;-49
2022/02/09 00:17:40;;;;;;;14.43;4.57;;;9.60;99.90;;;;;;5011453;28;20057;-49
2022/02/09 00:33:41;;;;;;;10.00;4.60;;;9.60;99.90;;;;;;5011826;28;20053;-49
2022/02/09 00:39:05;;;;;;;9.57;4.53;;;9.60;99.90;;;;;;5008783;28;20041;-49
2022/02/09 00:41:54;;;;;;;11.88;3.97;;;9.60;99.90;;;;;;5011371;28;20046;-49
2022/02/09 01:11:46;;;;;;;11.88;4.63;;;9.60;99.90;;;;;;4983749;28;20045;-52
2022/02/09 01:39:09;;;;;;;11.35;5.00;;;9.60;99.90;;;;;;5014339;28;20411;-50
2022/02/09 01:43:12;;;;;;;11.30;5.20;;;9.50;99.90;;;;;;5014704;28;20081;-49
2022/02/09 01:55:38;;;;;;;8.95;4.72;;;9.50;99.90;;;;;;5014479;28;20060;-50
2022/02/09 01:58:04;;;;;;;11.43;5.07;;;9.50;99.90;;;;;;5013537;28;20046;-49
2022/02/09 02:00:29;;;;;;;8.20;4.32;;;9.50;99.90;;;;;;5013520;28;20505;-49
2022/02/09 02:02:55;;;;;;;12.18;5.18;;;9.50;99.90;;;;;;5013651;28;20033;-48
2022/02/09 02:05:21;;;;;;;9.10;4.63;;;9.50;99.90;;;;;;5090856;22;20509;-54
2022/02/09 02:10:15;;;;;;;12.98;5.70;;;9.50;99.90;;;;;;5029420;28;20095;-54
2022/02/09 02:13:11;;;;;;;9.45;4.30;;;9.50;99.90;;;;;;5032269;28;20068;-54
2022/02/09 02:18:19;;;;;;;8.48;4.22;;;9.50;99.90;;;;;;5022734;28;20046;-54
2022/02/09 02:23:33;;;;;;;10.70;4.63;;;9.50;99.90;;;;;;5032539;28;20037;-54
2022/02/09 02:34:26;;;;;;;10.85;4.57;;;9.50;99.90;;;;;;5033976;28;20524;-52
2022/02/09 02:40:09;;;;;;;12.40;4.80;;;9.60;99.90;;;;;;5050907;28;20063;-54
2022/02/09 02:57:11;;;;;;;9.30;4.78;;;9.50;99.90;;;;;;5029118;28;20125;-53
2022/02/09 03:13:02;;;;;;;10.05;5.63;;;9.30;99.90;;;;;;5038841;28;20051;-52
2022/02/09 03:18:15;;;;;;;10.90;6.28;;;9.30;99.90;;;;;;5050984;28;20081;-54
2022/02/09 03:20:50;;;;;;;13.05;6.45;;;9.30;99.90;;;;;;5034771;28;20029;-51
2022/02/09 03:47:52;;;;;;;12.43;7.00;;;9.30;99.90;;;;;;5051356;28;20044;-54
2022/02/09 03:55:43;;;;;;;13.97;5.90;;;9.30;99.90;;;;;;5043930;28;20033;-51
2022/02/09 03:58:10;;;;;;;11.93;6.13;;;9.30;99.90;;;;;;5022792;28;20311;-51
2022/02/09 04:00:39;;;;;;;10.25;5.97;;;9.30;99.90;;;;;;5012177;28;20456;-52
2022/02/09 04:03:10;;;;;;;10.73;6.00;;;9.30;99.90;;;;;;5012106;28;20080;-50
2022/02/09 04:05:35;;;;;;;14.05;6.53;;;9.30;99.90;;;;;;5020582;28;20065;-50
2022/02/09 04:08:02;;;;;;;12.70;6.88;;;9.30;99.90;;;;;;5051356;28;20472;-50
2022/02/09 04:10:36;;;;;;;11.73;6.05;;;9.30;99.90;;;;;;5051437;28;20087;-51
2022/02/09 04:16:12;;;;;;;9.05;5.55;;;9.30;99.90;;;;;;5024182;28;20076;-51
2022/02/09 04:19:01;;;;;;;10.20;6.03;;;9.30;99.90;;;;;;5028120;28;20563;-50
2022/02/09 04:38:17;;;;;;;12.80;6.28;;;9.30;99.90;;;;;;5050619;28;20114;-53
2022/02/09 04:56:30;;;;;;;11.73;6.95;;;9.20;99.90;;;;;;5053352;28;20045;-50
2022/02/09 04:59:15;;;;;;;12.77;7.55;;;9.30;99.90;;;;;;5049873;28;20076;-50
2022/02/09 05:02:06;;;;;;;12.30;7.43;;;9.30;99.90;;;;;;5035180;28;20085;-52
2022/02/09 05:25:52;;;;;;;14.35;9.55;;;9.30;99.90;;;;;;5038288;28;20053;-52
2022/02/09 05:28:19;;;;;;;16.08;10.40;;;9.30;99.90;;;;;;5032482;28;20122;-53
2022/02/09 05:30:46;;;;;;;15.82;9.82;;;9.30;99.90;;;;;;5034387;28;20046;-52
2022/02/09 05:33:12;;;;;;;14.13;9.63;;;9.30;99.90;;;;;;5034868;28;20037;-52
2022/02/09 05:35:42;;;;;;;15.52;10.05;;;9.30;99.90;;;;;;5034120;28;20048;-52
2022/02/09 05:38:08;;;;;;;16.95;9.88;;;9.30;99.90;;;;;;5034270;28;20045;-53
2022/02/09 05:40:33;;;;;;;17.52;10.30;;;9.30;99.90;;;;;;5034531;28;20382;-54
2022/02/09 05:42:59;;;;;;;15.80;10.13;;;9.30;99.90;;;;;;5033393;28;20037;-53
2022/02/09 05:45:30;;;;;;;15.65;10.27;;;9.30;99.90;;;;;;5023549;28;20522;-54
2022/02/09 05:50:55;;;;;;;12.35;9.38;;;9.30;99.90;;;;;;5033698;28;20134;-52
2022/02/09 05:53:35;;;;;;;14.25;10.75;;;9.30;99.90;;;;;;5035220;28;20086;-50
2022/02/09 05:56:19;;;;;;;14.25;10.77;;;9.30;99.90;;;;;;5021123;28;20045;-50
2022/02/09 05:59:04;;;;;;;18.60;10.98;;;9.30;99.90;;;;;;5053769;28;20102;-52
2022/02/09 06:01:30;;;;;;;17.02;11.55;;;9.30;99.90;;;;;;5054256;28;20052;-51
2022/02/09 06:03:55;;;;;;;17.13;11.02;;;9.20;99.90;;;;;;5054125;28;20033;-50
2022/02/09 06:06:21;;;;;;;18.25;10.40;;;9.20;99.90;;;;;;5051331;28;20048;-50
2022/02/09 06:08:47;;;;;;;16.40;10.70;;;9.20;99.90;;;;;;5033814;28;20473;-49
2022/02/09 06:11:25;;;;;;;16.52;11.18;;;9.20;99.90;;;;;;5032202;28;20033;-50
2022/02/09 06:14:19;;;;;;;14.68;10.73;;;9.30;99.90;;;;;;5030673;28;20068;-52
2022/02/09 06:22:01;;;;;;;13.23;9.45;;;9.30;99.90;;;;;;5030095;28;20102;-54
2022/02/09 06:24:29;;;;;;;11.90;8.50;;;9.20;99.90;;;;;;5011090;28;20620;-53
2022/02/09 06:26:55;;;;;;;12.05;8.68;;;9.20;99.90;;;;;;5026572;28;20392;-57
2022/02/09 06:29:20;;;;;;;13.38;8.88;;;9.20;99.90;;;;;;5053357;28;20121;-54
2022/02/09 06:31:47;;;;;;;14.73;8.57;;;9.20;99.90;;;;;;5032368;28;20073;-54
2022/02/09 06:34:16;;;;;;;13.18;9.38;;;9.20;99.90;;;;;;5028770;28;20419;-54
2022/02/09 06:36:46;;;;;;;15.43;9.80;;;9.20;99.90;;;;;;5024732;28;20046;-54
2022/02/09 06:39:13;;;;;;;13.43;8.68;;;9.20;99.90;;;;;;5025592;28;20042;-54
2022/02/09 06:41:41;;;;;;;17.70;9.55;;;9.20;99.90;;;;;;5022207;28;20539;-54
2022/02/09 06:47:05;;;;;;;13.30;8.68;;;9.10;99.90;;;;;;5251133;22;20052;-48
2022/02/09 06:49:33;;;;;;;11.75;8.43;;;9.10;99.90;;;;;;5021337;28;20037;-48
2022/02/09 06:51:58;;;;;;;14.88;8.75;;;9.20;99.90;;;;;;5028911;28;20099;-48
2022/02/09 06:54:29;;;;;;;15.70;8.52;;;9.10;99.90;;;;;;5005667;28;20059;-48
2022/02/09 06:59:28;;;;;;;13.60;7.53;;;9.10;99.90;;;;;;5019914;28;20413;-48
2022/02/09 07:01:55;;;;;;;12.63;7.65;;;9.10;99.90;;;;;;5019685;28;20498;-48
2022/02/09 07:04:21;;;;;;;10.88;7.45;;;9.10;99.90;;;;;;5025128;28;20409;-47
2022/02/09 07:06:47;;;;;;;11.40;6.53;;;9.10;99.90;;;;;;5034519;28;20099;-47
2022/02/09 07:09:12;;;;;;;11.65;6.85;;;9.10;99.90;;;;;;5052779;28;20076;-47
2022/02/09 07:11:38;;;;;;;10.50;6.57;;;9.00;99.90;;;;;;5052377;28;20073;-48
2022/02/09 07:14:04;;;;;;;11.48;7.53;;;9.00;99.90;;;;;;5052200;28;20412;-49
2022/02/09 07:16:30;;;;;;;10.88;7.03;;;9.00;99.90;;;;;;5050865;28;20033;-51
2022/02/09 07:18:56;;;;;;;11.05;6.28;;;9.00;99.90;;;;;;5049701;28;20040;-48
2022/02/09 07:21:26;;;;;;;10.95;6.60;;;9.00;99.90;;;;;;5052264;28;20052;-52
2022/02/09 07:23:54;;;;;;;12.73;6.60;;;9.00;99.90;;;;;;5025673;28;20045;-47
2022/02/09 07:26:27;;;;;;;11.13;6.30;;;9.00;99.90;;;;;;5025568;28;20091;-48
2022/02/09 07:28:54;;;;;;;11.25;6.60;;;9.10;99.90;;;;;;5032245;28;20052;-48
2022/02/09 07:31:20;;;;;;;15.23;6.65;;;9.00;99.90;;;;;;5032173;28;20417;-47
2022/02/09 07:33:46;;;;;;;10.07;5.78;;;9.10;99.90;;;;;;5038574;28;20647;-48
2022/02/09 07:36:14;;;;;;;9.68;5.70;;;9.00;99.90;;;;;;5050598;28;20045;-47
2022/02/09 07:38:41;;;;;;;12.30;6.50;;;9.10;99.90;;;;;;5052004;28;20033;-50
2022/02/09 07:41:08;;;;;;;11.85;6.85;;;9.10;99.90;;;;;;5051729;28;20082;-47
2022/02/09 07:54:00;;;;;;;13.05;8.73;;;9.10;99.90;;;;;;5051951;28;20053;-50
2022/02/09 07:56:31;;;;;;;15.00;8.52;;;9.10;99.90;;;;;;5051540;28;20045;-48
2022/02/09 07:58:57;;;;;;;13.05;8.63;;;9.20;99.90;;;;;;5051557;28;20420;-47
2022/02/09 08:01:23;;;;;;;13.32;8.93;;;9.20;99.90;;;;;;5051673;28;20072;-50
2022/02/09 08:03:50;;;;;;;14.52;9.18;;;9.20;99.90;;;;;;5051527;28;20033;-52
2022/02/09 08:09:59;;;;;;;16.08;9.98;;;9.10;99.90;;;;;;5030157;28;20091;-53
2022/02/09 08:28:47;;;;;;;15.85;10.40;;;9.20;99.90;;;;;;5010716;28;20050;-49
2022/02/09 08:33:40;;;;;;;15.95;9.73;;;9.20;99.90;;;;;;5025953;28;20123;-52
2022/02/09 08:36:06;;;;;;;14.38;9.27;;;9.20;99.90;;;;;;5051211;28;20073;-50
2022/02/09 08:38:32;;;;;;;14.70;9.50;;;9.30;99.90;;;;;;5051234;28;20040;-52
2022/02/09 08:40:59;;;;;;;17.00;10.45;;;9.30;99.90;;;;;;5051191;28;20401;-50
2022/02/09 08:43:25;;;;;;;14.38;9.80;;;9.30;99.90;;;;;;5051070;28;20033;-54
2022/02/09 08:45:52;;;;;;;16.02;10.20;;;9.30;99.90;;;;;;5051077;28;20040;-51
2022/02/09 08:48:21;;;;;;;14.30;9.60;;;9.30;99.90;;;;;;5050007;28;20048;-51
2022/02/09 08:50:51;;;;;;;15.45;9.63;;;9.50;99.90;;;;;;5051183;28;20128;-51
2022/02/09 08:53:18;;;;;;;13.70;9.73;;;9.30;99.90;;;;;;5051211;28;20044;-50
2022/02/09 08:55:45;;;;;;;14.30;9.82;;;9.30;99.90;;;;;;5049975;28;20496;-51
2022/02/09 08:58:13;;;;;;;16.00;10.05;;;9.30;99.90;;;;;;5033080;28;20489;-50
2022/02/09 09:00:39;;;;;;;16.17;8.90;;;9.40;99.90;;;;;;5051108;28;20049;-50
2022/02/09 09:03:21;;;;;;;16.65;9.15;;;9.40;99.90;;;;;;5039044;28;20041;-51
2022/02/09 09:11:47;;;;;;;12.52;9.05;;;9.40;99.90;;;;;;5031315;28;20052;-51
2022/02/09 10:03:05;;;;;;;15.20;10.02;;;9.60;99.90;;;;;;5044244;28;20037;-54
2022/02/09 10:31:56;;;;;;;15.25;10.23;;;9.40;99.90;;;;;;5033684;28;20134;-52
2022/02/09 10:34:22;;;;;;;15.45;10.93;;;9.40;99.90;;;;;;5033258;28;20053;-51
2022/02/09 10:37:00;;;;;;;13.90;9.95;;;9.40;99.90;;;;;;5033296;28;20436;-53
2022/02/09 10:40:14;;;;;;;13.85;9.18;;;9.50;99.90;;;;;;5033224;28;20044;-54
2022/02/09 10:42:44;;;;;;;13.27;9.52;;;9.50;99.90;;;;;;5032029;28;20088;-52
2022/02/09 10:45:31;;;;;;;13.60;9.02;;;9.60;99.90;;;;;;5033152;28;20072;-51
2022/02/09 10:47:57;;;;;;;11.60;9.40;;;9.60;99.90;;;;;;5032877;28;20046;-55
2022/02/09 10:52:55;;;;;;;12.52;9.15;;;9.60;99.90;;;;;;5031658;28;20037;-51
2022/02/09 10:55:36;;;;;;;12.43;9.65;;;9.70;99.90;;;;;;5032976;28;20100;-54
2022/02/09 10:58:17;;;;;;;12.68;9.68;;;9.70;99.90;;;;;;5024882;28;20556;-55
2022/02/09 11:00:45;;;;;;;11.70;9.30;;;9.70;99.90;;;;;;5012984;28;20490;-51
2022/02/09 11:03:22;;;;;;;14.65;10.60;;;9.70;99.90;;;;;;5012758;28;20038;-51
2022/02/09 11:05:53;;;;;;;13.15;9.57;;;9.70;99.90;;;;;;5014301;28;20034;-54
2022/02/09 11:08:19;;;;;;;13.38;9.57;;;9.70;99.90;;;;;;5011448;28;20081;-54
2022/02/09 11:10:45;;;;;;;11.93;9.65;;;9.80;99.90;;;;;;5013103;28;20088;-52
2022/02/09 11:13:12;;;;;;;13.50;9.93;;;9.80;99.90;;;;;;5012835;28;20084;-54
2022/02/09 11:15:44;;;;;;;13.63;10.07;;;9.80;99.90;;;;;;5012463;28;20038;-55
2022/02/09 11:18:14;;;;;;;17.10;10.45;;;9.80;99.90;;;;;;5012718;28;20046;-54
2022/02/09 11:21:10;;;;;;;13.43;10.18;;;9.80;99.90;;;;;;5028132;28;20034;-54
2022/02/09 11:23:54;;;;;;;13.18;9.60;;;9.80;99.90;;;;;;5028929;28;20488;-54
2022/02/09 11:26:37;;;;;;;13.23;9.23;;;9.80;99.90;;;;;;5052143;28;20044;-53
2022/02/09 11:29:22;;;;;;;13.80;8.88;;;9.80;99.90;;;;;;5052534;28;20052;-54
2022/02/09 11:32:21;;;;;;;13.43;8.95;;;9.90;99.90;;;;;;5034609;28;20084;-55
2022/02/09 11:37:48;;;;;;;13.45;9.05;;;9.90;99.90;;;;;;5051106;28;20048;-54
2022/02/09 11:40:30;;;;;;;14.98;9.38;;;10.00;99.90;;;;;;5032172;28;20044;-52
2022/02/09 11:43:05;;;;;;;12.18;9.45;;;10.00;99.90;;;;;;5052475;28;20044;-54
2022/02/09 11:46:02;;;;;;;13.50;9.10;;;10.00;99.90;;;;;;5052286;28;20087;-54
2022/02/09 11:57:04;;;;;;;10.15;7.70;;;10.10;99.90;;;;;;5051429;28;20124;-54
2022/02/09 12:10:52;;;;;;;11.65;7.20;;;10.20;99.90;;;;;;5031601;28;20140;-54
2022/02/09 12:16:47;;;;;;;11.52;6.80;;;10.30;99.90;;;;;;5037929;28;20136;-54
2022/02/09 12:19:32;;;;;;;10.02;6.32;;;10.30;99.90;;;;;;5051552;28;20130;-55
2022/02/09 12:22:11;;;;;;;9.70;6.18;;;10.30;99.90;;;;;;5051535;28;20487;-55
2022/02/09 12:24:37;;;;;;;10.32;5.88;;;10.20;99.90;;;;;;5051453;28;20044;-54
2022/02/09 12:27:14;;;;;;;11.68;6.68;;;10.20;99.90;;;;;;5051265;28;20072;-53
2022/02/09 12:29:41;;;;;;;8.55;5.65;;;10.30;99.90;;;;;;5050290;28;20037;-54
2022/02/09 12:32:16;;;;;;;8.55;5.72;;;10.30;99.90;;;;;;5033306;28;20080;-53
2022/02/09 12:35:09;;;;;;;8.23;5.30;;;10.30;99.90;;;;;;5051038;28;20515;-55
2022/02/09 12:37:38;;;;;;;10.20;4.57;;;10.30;99.90;;;;;;5051444;28;20053;-55
2022/02/09 12:40:11;;;;;;;8.77;5.30;;;10.20;99.90;;;;;;5051233;28;20041;-54
2022/02/09 12:42:41;;;;;;;9.15;4.93;;;10.20;99.90;;;;;;5051421;28;20540;-54
2022/02/09 12:45:15;;;;;;;8.52;5.70;;;10.20;99.90;;;;;;5047425;28;20120;-52
2022/02/09 12:47:47;;;;;;;11.48;4.80;;;10.20;99.90;;;;;;5051036;28;20044;-52
2022/02/09 12:50:15;;;;;;;12.57;4.90;;;10.20;99.90;;;;;;5051394;28;20389;-51
2022/02/09 12:52:42;;;;;;;8.90;4.78;;;10.10;99.90;;;;;;5051313;28;20093;-50
2022/02/09 12:55:24;;;;;;;11.57;5.55;;;10.10;99.90;;;;;;5051294;28;20037;-51
2022/02/09 12:58:00;;;;;;;11.40;5.03;;;10.10;99.90;;;;;;5050618;28;20509;-51
2022/02/09 13:00:32;;;;;;;13.80;5.20;;;10.10;99.90;;;;;;5048983;28;20090;-50
2022/02/09 13:03:00;;;;;;;10.30;4.43;;;10.20;99.90;;;;;;5050998;28;20522;-52
2022/02/09 13:05:26;;;;;;;7.85;4.15;;;10.20;99.90;;;;;;5054224;28;20077;-51
2022/02/09 13:07:57;;;;;;;9.93;4.07;;;10.20;99.90;;;;;;5054735;28;20108;-51
2022/02/09 13:10:25;;;;;;;12.00;4.82;;;10.20;99.90;;;;;;5053824;28;20051;-50
2022/02/09 13:12:52;;;;;;;9.60;4.20;;;10.20;99.90;;;;;;5054899;28;20447;-51
2022/02/09 13:15:23;;;;;;;10.82;4.63;;;10.20;99.90;;;;;;5048496;28;20045;-51
2022/02/09 13:18:29;;;;;;;9.50;4.47;;;10.20;99.90;;;;;;5017152;28;20048;-50
2022/02/09 13:51:34;;;;;;;8.88;4.03;;;10.00;99.90;;;;;;5034559;28;20084;-51
2022/02/09 13:53:25;;;;;;;12.02;3.65;;;9.80;99.90;;;;;;5034362;28;20050;-51
2022/02/09 14:12:02;;;;;;;9.07;4.80;;;9.60;99.90;;;;;;5036835;28;20525;-50
2022/02/09 14:15:01;;;;;;;9.95;5.22;;;9.60;99.90;;;;;;5052444;28;20033;-49
2022/02/09 14:17:51;;;;;;;11.43;5.07;;;9.60;99.90;;;;;;5051718;28;20049;-49
2022/02/09 14:23:55;;;;;;;6.45;4.20;;;9.50;99.90;;;;;;5053547;28;20045;-49
2022/02/09 14:32:14;;;;;;;8.73;5.10;;;9.50;99.90;;;;;;5054203;28;20098;-52
2022/02/09 14:53:21;;;;;;;9.05;5.20;;;9.30;99.90;;;;;;5025396;28;20034;-52
2022/02/09 14:56:12;;;;;;;7.70;4.95;;;9.30;99.90;;;;;;5022674;28;20044;-49
2022/02/09 14:58:41;;;;;;;8.38;5.32;;;9.30;99.90;;;;;;5012807;28;20034;-49
2022/02/09 15:01:14;;;;;;;9.30;5.38;;;9.30;99.90;;;;;;5047595;28;20051;-49
2022/02/09 15:08:58;;;;;;;9.50;5.28;;;9.30;99.90;;;;;;5052388;28;20415;-51
2022/02/09 15:11:39;;;;;;;10.57;5.28;;;9.30;99.90;;;;;;5052838;28;20049;-53
2022/02/09 15:16:55;;;;;;;7.25;4.80;;;9.20;99.90;;;;;;5052606;28;20488;-53
2022/02/09 15:19:44;;;;;;;8.05;4.78;;;9.20;99.90;;;;;;5050975;28;20378;-51
2022/02/09 15:22:12;;;;;;;8.32;3.78;;;9.20;99.90;;;;;;5052491;28;20455;-53
2022/02/09 15:24:47;;;;;;;9.43;5.10;;;9.20;99.90;;;;;;5032954;28;20520;-51
2022/02/09 15:27:18;;;;;;;9.13;4.85;;;9.20;99.90;;;;;;5024476;28;20087;-52
2022/02/09 15:29:44;;;;;;;8.95;5.00;;;9.20;99.90;;;;;;5047262;28;20037;-49
2022/02/09 15:32:39;;;;;;;9.98;4.68;;;9.20;99.90;;;;;;5052487;28;20071;-52
2022/02/09 15:35:11;;;;;;;7.35;4.45;;;9.20;99.90;;;;;;5050757;28;20060;-50
2022/02/09 15:37:47;;;;;;;8.38;4.70;;;9.20;99.90;;;;;;5051886;28;20513;-52
2022/02/09 15:40:31;;;;;;;11.20;4.95;;;9.20;99.90;;;;;;5051820;28;20163;-50
2022/02/09 15:57:22;;;;;;;13.48;6.60;;;9.20;99.90;;;;;;5024836;28;20536;-52
2022/02/09 16:05:38;;;;;;;11.10;7.35;;;9.20;99.90;;;;;;5014405;28;20038;-50
2022/02/09 16:05:44;;;;;;;14.57;7.47;;;9.10;99.90;;;;;;5031991;28;20047;-52
2022/02/09 16:11:22;;;;;;;14.05;7.80;;;9.10;99.90;;;;;;5040270;28;20052;-54
2022/02/09 16:17:21;;;;;;;13.32;8.45;;;9.10;99.90;;;;;;4981397;28;20139;-53
2022/02/09 16:22:22;;;;;;;16.40;9.00;;;9.10;99.90;;;;;;5006975;28;20053;-53
2022/02/09 16:38:11;;;;;;;16.73;10.30;;;9.10;99.90;;;;;;5026440;28;20049;-52
2022/02/09 16:46:23;;;;;;;17.02;11.10;;;9.00;99.90;;;;;;5018296;28;20460;-51
2022/02/09 16:49:06;;;;;;;21.50;11.48;;;9.00;99.90;;;;;;5035095;28;20119;-52
2022/02/09 16:51:40;;;;;;;;;;;9.00;99.90;;;;;;5035580;28;20045;-50
2022/02/09 16:54:58;;;;;;;18.55;12.00;;;9.00;99.90;;;;;;5030925;28;20385;-49
2022/02/09 16:57:03;;;;;;;19.10;11.55;;;8.90;99.90;;;;;;5014299;28;20080;-52
2022/02/09 17:19:01;;;;;;;19.65;12.80;;;8.90;99.90;;;;;;4978262;28;20070;-55
2022/02/09 17:21:30;;;;;;;22.83;13.73;;;8.90;99.90;;;;;;5011134;28;20077;-52
2022/02/09 17:24:02;;;;;;;17.73;12.85;;;8.90;99.90;;;;;;5023884;28;20044;-53
2022/02/09 17:26:29;;;;;;;19.48;12.82;;;8.90;99.90;;;;;;5019971;28;20375;-53
2022/02/09 17:29:05;;;;;;;20.35;13.25;;;8.90;99.90;;;;;;5029057;28;20056;-53
2022/02/09 17:34:14;;;;;;;25.10;14.65;;;8.90;99.90;;;;;;5030993;28;21309;-53
2022/02/09 17:55:54;;;;;;;23.73;13.65;;;8.80;99.90;;;;;;5013053;28;20571;-56
2022/02/09 17:58:28;;;;;;;23.80;14.60;;;8.80;99.90;;;;;;5013632;28;20227;-55
2022/02/09 18:00:54;;;;;;;21.25;13.57;;;8.80;99.90;;;;;;5018287;28;20549;-55
2022/02/09 18:03:20;;;;;;;21.73;13.23;;;8.90;99.90;;;;;;5014831;28;20042;-55
2022/02/09 18:05:51;;;;;;;22.13;13.98;;;8.90;99.90;;;;;;5018067;28;20124;-55
2022/02/09 18:25:16;;;;;;;21.85;13.18;;;8.80;99.90;;;;;;5027694;28;20103;-54
2022/02/09 18:27:28;;;;;;;21.95;13.25;;;8.80;99.90;;;;;;5017572;28;20048;-54
2022/02/09 18:29:42;;;;;;;21.48;13.90;;;8.80;99.90;;;;;;5016667;28;20312;-52
2022/02/09 18:37:41;;;;;;;26.00;14.85;;;8.80;99.90;;;;;;5018933;28;20273;-52
2022/02/09 18:37:46;;;;;;;23.52;14.70;;;8.90;99.90;;;;;;5024497;28;20494;-53
2022/02/09 18:43:04;;;;;;;25.95;15.25;;;8.80;99.90;;;;;;5023530;28;20061;-55
2022/02/09 18:45:51;;;;;;;24.17;15.07;;;8.80;99.90;;;;;;5023210;28;20041;-52
2022/02/09 18:59:29;;;;;;;30.63;17.63;;;8.80;99.90;;;;;;5033766;28;20096;-56
2022/02/09 19:02:20;;;;;;;28.10;17.70;;;8.80;99.90;;;;;;5019664;28;20042;-53
2022/02/09 19:04:49;;;;;;;31.75;17.67;;;8.80;99.90;;;;;;5022717;28;20041;-52
2022/02/09 19:07:33;;;;;;;26.92;16.92;;;8.70;99.90;;;;;;5028450;28;20079;-54
2022/02/09 19:18:35;;;;;;;27.45;17.17;;;8.80;99.90;;;;;;5033449;28;20053;-52
2022/02/09 19:26:50;;;;;;;29.98;17.77;;;8.80;99.90;;;;;;5045151;28;20132;-51
2022/02/09 19:55:38;;;;;;;41.20;23.97;;;8.80;99.90;;;;;;5017271;28;20394;-50
2022/02/09 19:58:05;;;;;;;44.67;23.92;;;8.80;99.90;;;;;;5021018;28;20296;-52
2022/02/09 20:00:34;;;;;;;47.00;23.55;;;8.80;99.90;;;;;;5024519;28;20077;-54
2022/02/09 20:03:00;;;;;;;44.85;23.70;;;8.80;99.90;;;;;;5020541;28;20508;-53
2022/02/09 20:05:26;;;;;;;50.72;26.15;;;8.80;99.90;;;;;;5043316;28;20037;-50
2022/02/09 20:07:53;;;;;;;50.88;26.48;;;8.80;99.90;;;;;;5017022;28;21925;-52
2022/02/09 20:10:19;;;;;;;49.40;26.02;;;8.80;99.90;;;;;;5018686;28;20618;-51
2022/02/09 20:12:44;;;;;;;56.03;25.83;;;8.80;99.90;;;;;;5016947;28;20075;-51
2022/02/09 20:15:12;;;;;;;52.05;24.83;;;8.80;99.90;;;;;;5024921;28;20401;-50
2022/02/09 20:17:40;;;;;;;55.40;25.77;;;8.80;99.90;;;;;;5026573;28;20045;-53
2022/02/09 20:20:09;;;;;;;56.20;27.27;;;8.70;99.90;;;;;;5025511;28;20037;-50
2022/02/09 20:22:35;;;;;;;50.63;25.20;;;8.80;99.90;;;;;;5025748;28;20042;-50
2022/02/09 20:25:00;;;;;;;50.92;25.95;;;8.70;99.90;;;;;;5028776;28;20036;-50
2022/02/09 20:27:26;;;;;;;54.42;26.98;;;8.70;99.90;;;;;;5020614;28;20045;-51
2022/02/09 20:29:53;;;;;;;50.35;25.42;;;8.70;99.90;;;;;;5007373;28;20045;-50
2022/02/09 20:32:29;;;;;;;51.42;25.73;;;8.70;99.90;;;;;;5024193;28;20041;-52
2022/02/09 20:34:57;;;;;;;45.17;25.45;;;8.70;99.90;;;;;;5046589;28;20056;-54
2022/02/09 20:37:25;;;;;;;48.80;25.13;;;8.80;99.90;;;;;;5022649;28;20124;-52
2022/02/09 20:40:11;;;;;;;53.83;26.52;;;8.80;99.90;;;;;;5027881;28;20045;-50
2022/02/09 20:42:39;;;;;;;52.53;25.60;;;8.80;99.90;;;;;;5011275;28;20042;-50
2022/02/09 20:45:19;;;;;;;53.25;25.40;;;8.70;99.90;;;;;;5018361;28;20040;-50
2022/02/09 20:47:45;;;;;;;51.95;25.70;;;8.70;99.90;;;;;;5028638;28;20038;-50
2022/02/09 20:50:10;;;;;;;54.63;25.60;;;8.70;99.90;;;;;;5030440;28;20408;-50
2022/02/09 20:52:37;;;;;;;49.03;24.85;;;8.70;99.90;;;;;;5030027;28;20041;-53
2022/02/09 20:55:03;;;;;;;50.58;24.50;;;8.70;99.90;;;;;;5016915;28;20049;-52
2022/02/09 20:57:30;;;;;;;46.25;22.77;;;8.80;99.90;;;;;;5017780;28;20038;-50
2022/02/09 21:00:05;;;;;;;51.80;24.58;;;8.70;99.90;;;;;;5021281;28;20079;-49
2022/02/09 21:05:07;;;;;;;54.78;24.02;;;8.70;99.90;;;;;;5018787;28;20093;-50
2022/02/09 21:07:43;;;;;;;55.20;24.35;;;8.80;99.90;;;;;;5021919;28;20037;-52
2022/02/09 21:10:38;;;;;;;52.08;24.67;;;8.70;99.90;;;;;;5024568;28;20183;-50
2022/02/09 21:13:11;;;;;;;59.83;24.67;;;8.70;99.90;;;;;;5017954;28;20042;-53
2022/02/09 21:21:16;;;;;;;50.73;23.73;;;8.70;99.90;;;;;;5026037;28;20502;-53
2022/02/09 21:24:13;;;;;;;51.22;23.50;;;8.70;99.90;;;;;;5023226;28;20042;-51
2022/02/09 21:26:56;;;;;;;52.30;23.75;;;8.70;99.90;;;;;;5028829;28;20045;-52
2022/02/09 21:32:30;;;;;;;56.47;24.17;;;8.70;99.90;;;;;;5033562;28;20099;-55
2022/02/09 21:55:23;;;;;;;46.42;24.08;;;8.70;99.90;;;;;;4992836;28;20046;-87
2022/02/09 21:58:02;;;;;;;51.88;24.90;;;8.80;99.90;;;;;;5003525;28;20133;-87
2022/02/09 22:25:54;;;;;;;44.38;24.40;;;8.80;99.90;;;;;;5012276;28;20128;-87
2022/02/09 22:27:14;;;;;;;45.80;23.50;;;8.80;99.90;;;;;;5011229;28;20092;-87
2022/02/09 22:33:06;;;;;;;42.63;23.92;;;8.80;99.90;;;;;;4992244;28;20138;-87
2022/02/09 22:48:34;;;;;;;44.17;23.27;;;8.90;99.90;;;;;;5011421;28;20046;-86
2022/02/09 22:56:30;;;;;;;44.30;23.67;;;8.80;99.90;;;;;;5030828;28;20041;-87
2022/02/09 22:58:55;;;;;;;43.47;23.98;;;8.80;99.90;;;;;;5014596;28;20434;-87
2022/02/09 23:01:33;;;;;;;47.28;25.65;;;8.80;99.90;;;;;;5013626;28;20037;-87
2022/02/09 23:17:09;;;;;;;42.53;23.02;;;8.70;99.90;;;;;;5010550;28;20126;-87
2022/02/09 23:28:33;;;;;;;43.17;22.85;;;8.80;99.90;;;;;;5010682;28;20045;-87
